^^
Grace C. Lehan Memorial Weather Station Historical Data
Daily Summary for September 6, 2021 Units:  English    Metric   Both
Daily Weekly Monthly Yearly
  High: Low: Average:
Temperature: 83.9 °F 63.3 °F 73.1 °F
Dew Point: 71.4 °F 57.7 °F 64.3 °F
Humidity: 97% 46.1% 77%
Wind Speed: 4.7mph 0mph 0.7mph
Wind Gust: 17mph - -
Wind- - WSW
Pressure: 29.85 in 29.68 in -
Precipitation: 0.01 in    
 
 
Tabular Data for September 6, 2021
Time Temperature Dew Point Pressure Wind Wind Speed Wind Gust Humidity Rainfall Rate (Hourly) solar
00:00 68.2 °F 67 °F 29.74 in Calm     96% 0.00 in 0 W/m2
00:09 68.3 °F 67.1 °F 29.75 in Calm     96% 0.00 in 0 W/m2
00:14 68.3 °F 67.1 °F 29.75 in Calm     96% 0.00 in 0 W/m2
00:19 68.4 °F 67.2 °F 29.75 in Calm     96% 0.00 in 0 W/m2
00:24 68.4 °F 67.2 °F 29.75 in Calm     96% 0.00 in 0 W/m2
00:29 68.4 °F 67.2 °F 29.75 in Calm     96% 0.00 in 0 W/m2
00:34 68.4 °F 67.2 °F 29.75 in Calm     96% 0.00 in 0 W/m2
00:39 68.4 °F 67.2 °F 29.74 in Calm     96% 0.00 in 0 W/m2
00:44 68.3 °F 67.1 °F 29.75 in Calm     96% 0.00 in 0 W/m2
00:49 68.3 °F 67.1 °F 29.75 in Calm     96% 0.00 in 0 W/m2
00:54 68.3 °F 67.4 °F 29.75 in Calm     96.8% 0.00 in 0 W/m2
00:59 68.3 °F 67.4 °F 29.75 in Calm     97% 0.00 in 0 W/m2
01:04 68.3 °F 67.5 °F 29.75 in Calm     97% 0.00 in 0 W/m2
01:09 68.4 °F 67.5 °F 29.74 in Calm     97% 0.00 in 0 W/m2
01:14 68.4 °F 67.5 °F 29.74 in Calm     97% 0.00 in 0 W/m2
01:19 68.4 °F 67.5 °F 29.74 in Calm     97% 0.00 in 0 W/m2
01:24 68.3 °F 67.4 °F 29.74 in Calm     97% 0.00 in 0 W/m2
01:29 68.3 °F 67.3 °F 29.74 in Calm     96.5% 0.00 in 0 W/m2
01:34 68.3 °F 67.1 °F 29.74 in Calm     96% 0.00 in 0 W/m2
01:39 68.3 °F 67.1 °F 29.74 in Calm     96% 0.00 in 0 W/m2
01:44 68.2 °F 67 °F 29.74 in Calm     96% 0.00 in 0 W/m2
01:49 68.2 °F 67 °F 29.74 in Calm     96% 0.00 in 0 W/m2
01:54 68.2 °F 67 °F 29.74 in Calm     96% 0.00 in 0 W/m2
01:59 68.2 °F 67 °F 29.74 in Calm     96% 0.00 in 0 W/m2
02:04 68.1 °F 66.9 °F 29.74 in Calm     96% 0.00 in 0 W/m2
02:09 68.1 °F 66.9 °F 29.74 in Calm     96% 0.00 in 0 W/m2
02:14 68.1 °F 66.9 °F 29.74 in Calm     96% 0.00 in 0 W/m2
02:19 68.1 °F 66.9 °F 29.74 in Calm     96% 0.00 in 0 W/m2
02:24 68.1 °F 66.9 °F 29.74 in Calm     96% 0.00 in 0 W/m2
02:29 68.1 °F 66.9 °F 29.74 in Calm     96% 0.00 in 0 W/m2
02:34 68 °F 66.8 °F 29.74 in Calm     96% 0.00 in 0 W/m2
02:39 67.9 °F 66.9 °F 29.73 in Calm     96.4% 0.00 in 0 W/m2
02:44 67.9 °F 67 °F 29.74 in Calm     97% 0.00 in 0 W/m2
02:49 67.8 °F 66.9 °F 29.74 in Calm     97% 0.00 in 0 W/m2
02:54 67.8 °F 66.9 °F 29.73 in Calm     97% 0.00 in 0 W/m2
02:59 67.7 °F 66.9 °F 29.74 in Calm     97% 0.00 in 0 W/m2
03:04 67.7 °F 66.8 °F 29.74 in Calm     97% 0.00 in 0 W/m2
03:09 67.7 °F 66.8 °F 29.74 in Calm     97% 0.00 in 0 W/m2
03:14 67.7 °F 66.7 °F 29.73 in Calm     96.6% 0.00 in 0 W/m2
03:19 67.6 °F 66.4 °F 29.74 in Calm     96% 0.00 in 0 W/m2
03:24 67.6 °F 66.4 °F 29.73 in Calm     96% 0.00 in 0 W/m2
03:29 67.6 °F 66.4 °F 29.73 in Calm     96% 0.00 in 0 W/m2
03:34 67.6 °F 66.4 °F 29.73 in Calm     96% 0.00 in 0 W/m2
03:39 67.6 °F 66.4 °F 29.73 in Calm     96% 0.00 in 0 W/m2
03:44 67.6 °F 66.7 °F 29.73 in Calm     96.8% 0.00 in 0 W/m2
03:49 67.6 °F 66.7 °F 29.73 in Calm     97% 0.00 in 0 W/m2
03:54 67.6 °F 66.7 °F 29.73 in Calm     97% 0.00 in 0 W/m2
03:59 67.6 °F 66.7 °F 29.73 in Calm     97% 0.00 in 0 W/m2
04:00 67.6 °F 66.7 °F 29.73 in Calm     97% 0.00 in 0 W/m2
04:09 67.6 °F 66.7 °F 29.73 in Calm     97% 0.00 in 0 W/m2
04:14 67.6 °F 66.7 °F 29.73 in Calm     97% 0.00 in 0 W/m2
04:19 67.6 °F 66.7 °F 29.73 in Calm     97% 0.00 in 0 W/m2
04:24 67.6 °F 66.7 °F 29.73 in Calm     97% 0.00 in 0 W/m2
04:29 67.5 °F 66.6 °F 29.73 in Calm     97% 0.00 in 0 W/m2
04:34 67.5 °F 66.7 °F 29.72 in Calm     97% 0.00 in 0 W/m2
04:39 67.5 °F 66.6 °F 29.72 in Calm     97% 0.00 in 0 W/m2
04:44 67.6 °F 66.7 °F 29.72 in Calm     97% 0.00 in 0 W/m2
04:49 67.5 °F 66.6 °F 29.71 in Calm     97% 0.00 in 0 W/m2
04:54 67.5 °F 66.6 °F 29.72 in Calm     97% 0.00 in 0 W/m2
04:59 67.5 °F 66.6 °F 29.72 in Calm     97% 0.01 in 0 W/m2
05:04 67.5 °F 66.6 °F 29.72 in Calm     97% 0.01 in 0 W/m2
05:09 67.5 °F 66.6 °F 29.72 in Calm     97% 0.01 in 0 W/m2
05:14 67.4 °F 66.6 °F 29.71 in Calm     97% 0.01 in 0 W/m2
05:19 67.5 °F 66.6 °F 29.72 in Calm     97% 0.01 in 0 W/m2
05:24 67.4 °F 66.6 °F 29.72 in Calm     97% 0.01 in 0 W/m2
05:29 67.4 °F 66.5 °F 29.72 in Calm     97% 0.01 in 0 W/m2
05:34 67.4 °F 66.5 °F 29.72 in Calm     97% 0.01 in 0 W/m2
05:39 67.4 °F 66.5 °F 29.73 in Calm     97% 0.01 in 0 W/m2
05:44 67.3 °F 66.4 °F 29.73 in Calm     97% 0.01 in 0 W/m2
05:49 67.2 °F 66.4 °F 29.73 in Calm     97% 0.01 in 0 W/m2
05:54 67.2 °F 66.3 °F 29.73 in Calm     97% 0.01 in 0 W/m2
05:59 67.1 °F 66.2 °F 29.73 in Calm     97% 0.01 in 0 W/m2
06:04 67 °F 66.1 °F 29.72 in Calm     97% 0.01 in 0 W/m2
06:09 66.9 °F 66 °F 29.72 in Calm     97% 0.00 in 0 W/m2
06:14 66.7 °F 65.6 °F 29.73 in Calm     96.1% 0.00 in 0 W/m2
06:19 66.6 °F 65.7 °F 29.74 in Calm     96.9% 0.00 in 0 W/m2
06:24 66.5 °F 65.7 °F 29.74 in Calm     97% 0.00 in 0 W/m2
06:29 66.4 °F 65.6 °F 29.74 in Calm     97% 0.00 in 0 W/m2
06:34 66.3 °F 65.3 °F 29.74 in Calm     96.5% 0.00 in 0 W/m2
06:39 66.2 °F 65 °F 29.74 in Calm     96% 0.00 in 0 W/m2
06:44 66.1 °F 64.9 °F 29.74 in Calm     96% 0.00 in 7 W/m2
06:49 66 °F 64.9 °F 29.74 in Calm     96% 0.00 in 11 W/m2
06:54 65.9 °F 65.1 °F 29.74 in Calm     97% 0.00 in 14 W/m2
06:59 65.9 °F 65 °F 29.74 in Calm     97% 0.00 in 26 W/m2
07:04 66.1 °F 65.2 °F 29.74 in Calm     97% 0.00 in 26 W/m2
07:09 66.2 °F 65.3 °F 29.75 in Calm     97% 0.00 in 33 W/m2
07:14 66.3 °F 65.4 °F 29.74 in Calm     97% 0.00 in 35 W/m2
07:19 66.4 °F 65.6 °F 29.74 in Calm     97% 0.00 in 40 W/m2
07:24 66.6 °F 65.7 °F 29.74 in Calm     97% 0.00 in 49 W/m2
07:29 66.8 °F 65.9 °F 29.74 in Calm     97% 0.00 in 54 W/m2
07:34 67 °F 66.1 °F 29.74 in Calm     97% 0.00 in 65 W/m2
07:39 67.2 °F 66.3 °F 29.74 in Calm     97% 0.00 in 79 W/m2
07:44 67.6 °F 66.7 °F 29.74 in Calm     97% 0.00 in 86 W/m2
07:49 68.1 °F 67.2 °F 29.75 in Calm     97% 0.00 in 86 W/m2
07:54 68.5 °F 67.7 °F 29.75 in Calm     97% 0.00 in 74 W/m2
07:59 68.7 °F 67.8 °F 29.75 in Calm     97% 0.00 in 97 W/m2
08:09 69 °F 68.1 °F 29.75 in WSW 0.2 mph 5 mph 97% 0.00 in 123 W/m2
08:14 69 °F 68.1 °F 29.75 in WSW 0.3 mph 5 mph 97% 0.00 in 120 W/m2
08:19 68.9 °F 68 °F 29.75 in WSW 0.2 mph 5 mph 97% 0.00 in 137 W/m2
08:24 68.9 °F 68 °F 29.75 in West 0.1 mph 5 mph 97% 0.00 in 202 W/m2
08:29 69 °F 68.1 °F 29.75 in Calm   5 mph 97% 0.00 in 343 W/m2
08:34 69 °F 68.1 °F 29.75 in Calm   5 mph 97% 0.00 in 359 W/m2
08:39 69.2 °F 68.3 °F 29.75 in Calm   1 mph 97% 0.00 in 388 W/m2
08:44 69.4 °F 68.5 °F 29.75 in WSW 1.5 mph 7 mph 97% 0.00 in 434 W/m2
08:49 69.7 °F 68.8 °F 29.75 in WSW 0.5 mph 7 mph 97% 0.00 in 441 W/m2
08:54 70.2 °F 69.3 °F 29.75 in West 0.2 mph 7 mph 97% 0.00 in 490 W/m2
08:59 70.7 °F 69.8 °F 29.75 in West 1 mph 7 mph 97% 0.00 in 490 W/m2
09:04 71.2 °F 70 °F 29.75 in Calm   7 mph 96.1% 0.00 in 547 W/m2
09:09 71.9 °F 70.6 °F 29.75 in WSW 0.1 mph 3 mph 95.6% 0.00 in 547 W/m2
09:14 72.7 °F 71.1 °F 29.76 in Calm   3 mph 94.6% 0.00 in 538 W/m2
09:19 73.5 °F 71.4 °F 29.75 in WSW 0.2 mph 3 mph 92.9% 0.00 in 538 W/m2
09:24 74.2 °F 71.1 °F 29.76 in WSW 0.6 mph 4 mph 90.1% 0.00 in 563 W/m2
09:29 74.7 °F 70.6 °F 29.75 in WSW 0.1 mph 4 mph 87.2% 0.00 in 557 W/m2
09:34 75 °F 70.4 °F 29.75 in Calm   4 mph 85.7% 0.00 in 589 W/m2
09:39 75.3 °F 70.3 °F 29.76 in WSW 1.9 mph 7 mph 84.3% 0.00 in 596 W/m2
09:44 75.5 °F 69.6 °F 29.76 in WNW 1.6 mph 7 mph 82% 0.00 in 606 W/m2
09:49 75.8 °F 69.9 °F 29.76 in WNW 0.3 mph 7 mph 82% 0.00 in 621 W/m2
09:54 76.3 °F 70 °F 29.77 in West 2.4 mph 9 mph 80.9% 0.00 in 724 W/m2
09:59 76.8 °F 69.5 °F 29.77 in WNW 0.7 mph 9 mph 78.4% 0.00 in 803 W/m2
10:04 77.2 °F 69.4 °F 29.77 in Calm   9 mph 77% 0.00 in 793 W/m2
10:09 77.2 °F 69.4 °F 29.77 in WNW 0.5 mph 5 mph 77.1% 0.00 in 807 W/m2
10:14 77.2 °F 69.5 °F 29.76 in WNW 0.6 mph 5 mph 77.1% 0.00 in 807 W/m2
10:19 77.5 °F 69.8 °F 29.76 in WNW 0.9 mph 5 mph 77.3% 0.00 in 761 W/m2
10:24 77.7 °F 69.6 °F 29.76 in WNW 0.4 mph 5 mph 76.2% 0.00 in 715 W/m2
10:29 78.2 °F 70.8 °F 29.76 in Calm   5 mph 78.1% 0.00 in 729 W/m2
10:34 78.7 °F 70.6 °F 29.76 in Calm   5 mph 76.1% 0.00 in 766 W/m2
10:39 79.1 °F 70.6 °F 29.76 in WNW 0.1 mph 2 mph 75.2% 0.00 in 752 W/m2
10:44 79.4 °F 70.5 °F 29.76 in WNW 0.4 mph 3 mph 74.1% 0.00 in 758 W/m2
10:49 79.8 °F 70.6 °F 29.76 in WNW 0.2 mph 3 mph 73.6% 0.00 in 758 W/m2
10:54 79.8 °F 69.6 °F 29.76 in Calm   3 mph 71% 0.00 in 759 W/m2
10:59 79.8 °F 69.6 °F 29.75 in Calm   3 mph 71.1% 0.00 in 758 W/m2
11:04 80.1 °F 69.6 °F 29.75 in WNW 0.2 mph 4 mph 70.3% 0.00 in 772 W/m2
11:09 80.5 °F 70.3 °F 29.75 in West 0.5 mph 5 mph 71.2% 0.00 in 784 W/m2
11:14 81 °F 70 °F 29.75 in WSW 0.5 mph 5 mph 69.3% 0.00 in 788 W/m2
11:19 81.3 °F 69.6 °F 29.75 in WNW 1.1 mph 7 mph 67.7% 0.00 in 800 W/m2
11:24 81.6 °F 70.5 °F 29.75 in WNW 0.2 mph 7 mph 69.1% 0.00 in 810 W/m2
11:29 82.1 °F 69.8 °F 29.75 in West 1 mph 7 mph 66.4% 0.00 in 817 W/m2
11:34 82.5 °F 69.4 °F 29.75 in West 0.4 mph 7 mph 64.6% 0.00 in 819 W/m2
11:39 83 °F 69.3 °F 29.75 in West 1.3 mph 6 mph 63.5% 0.00 in 830 W/m2
11:44 83.1 °F 69.4 °F 29.75 in WSW 1 mph 8 mph 63.5% 0.00 in 846 W/m2
11:49 83 °F 68.5 °F 29.75 in WSW 1.3 mph 8 mph 61.5% 0.00 in 853 W/m2
11:54 82.8 °F 68.4 °F 29.75 in WSW 0.5 mph 8 mph 61.9% 0.00 in 763 W/m2
11:59 82.4 °F 68.4 °F 29.75 in WSW 3.2 mph 8 mph 62.6% 0.00 in 763 W/m2
12:00 82.2 °F 67.9 °F 29.75 in Calm   8 mph 62% 0.00 in 163 W/m2
12:09 81.2 °F 67.8 °F 29.74 in SW 0.8 mph 7 mph 63.8% 0.00 in 135 W/m2
12:14 80.6 °F 67.4 °F 29.74 in WSW 0.3 mph 7 mph 64.2% 0.00 in 109 W/m2
12:19 80.1 °F 66.8 °F 29.74 in WSW 0.1 mph 7 mph 63.9% 0.00 in 144 W/m2
12:24 79.8 °F 66.3 °F 29.74 in SW 1.3 mph 7 mph 63.5% 0.00 in 193 W/m2
12:29 79.7 °F 65.4 °F 29.74 in SW 0.4 mph 7 mph 61.8% 0.00 in 121 W/m2
12:34 79.7 °F 65.4 °F 29.74 in SW 1.3 mph 10 mph 61.6% 0.00 in 116 W/m2
12:39 79.8 °F 65.7 °F 29.74 in WSW 1 mph 10 mph 62% 0.00 in 135 W/m2
12:44 79.9 °F 65.4 °F 29.73 in SW 1 mph 10 mph 61.3% 0.00 in 272 W/m2
12:49 80 °F 65.1 °F 29.73 in SW 2 mph 10 mph 60.5% 0.00 in 251 W/m2
12:54 80.1 °F 64.9 °F 29.73 in SW 2.3 mph 10 mph 59.7% 0.00 in 381 W/m2
12:59 80.2 °F 64.1 °F 29.72 in SW 1.6 mph 10 mph 58.1% 0.00 in 700 W/m2
13:04 80.2 °F 64.7 °F 29.72 in SW 0.6 mph 10 mph 59.2% 0.00 in 700 W/m2
13:09 80.2 °F 65.5 °F 29.72 in SW 1.2 mph 6 mph 60.9% 0.00 in 84 W/m2
13:14 80.4 °F 65.3 °F 29.72 in SW 1 mph 6 mph 60.2% 0.00 in 95 W/m2
13:19 80.4 °F 64.9 °F 29.72 in Calm   6 mph 59.1% 0.00 in 77 W/m2
13:24 80.6 °F 64.8 °F 29.72 in WSW 1.3 mph 6 mph 58.7% 0.00 in 72 W/m2
13:29 80.8 °F 63.4 °F 29.71 in SW 1.2 mph 8 mph 55.6% 0.00 in 146 W/m2
13:34 81 °F 63.5 °F 29.71 in WSW 1.1 mph 8 mph 55.4% 0.00 in 403 W/m2
13:39 81.2 °F 63.8 °F 29.71 in WSW 3 mph 11 mph 55.5% 0.00 in 325 W/m2
13:44 81.4 °F 62.9 °F 29.71 in WSW 2.3 mph 11 mph 53.5% 0.00 in 125 W/m2
13:49 81.4 °F 62.5 °F 29.71 in WSW 2.9 mph 11 mph 52.8% 0.00 in 158 W/m2
13:54 81.5 °F 62.6 °F 29.71 in WSW 2.6 mph 11 mph 52.7% 0.00 in 88 W/m2
13:59 81.5 °F 61.8 °F 29.71 in WSW 2.8 mph 14 mph 51.1% 0.00 in 357 W/m2
14:04 81.6 °F 62.5 °F 29.71 in WSW 1.9 mph 14 mph 52.3% 0.00 in 381 W/m2
14:09 81.6 °F 62 °F 29.71 in WSW 1.7 mph 11 mph 51.4% 0.00 in 411 W/m2
14:14 81.8 °F 62.7 °F 29.71 in WSW 3.8 mph 11 mph 52.4% 0.00 in 826 W/m2
14:19 82.2 °F 63.2 °F 29.70 in WSW 3.2 mph 11 mph 52.7% 0.00 in 844 W/m2
14:24 82.6 °F 62.8 °F 29.70 in SW 2.8 mph 11 mph 51.3% 0.00 in 821 W/m2
14:29 83 °F 63.1 °F 29.70 in WSW 1.9 mph 11 mph 51.1% 0.00 in 805 W/m2
14:34 83.4 °F 63.2 °F 29.70 in WSW 2.1 mph 11 mph 50.8% 0.00 in 814 W/m2
14:39 83.4 °F 63 °F 29.69 in SW 2.6 mph 11 mph 50.4% 0.00 in 812 W/m2
14:44 83.4 °F 63.1 °F 29.69 in West 3.7 mph 11 mph 50.5% 0.00 in 773 W/m2
14:49 83.6 °F 62.3 °F 29.69 in West 3.8 mph 14 mph 48.8% 0.00 in 765 W/m2
14:54 83.6 °F 62.9 °F 29.69 in WSW 3.1 mph 14 mph 49.9% 0.00 in 766 W/m2
14:59 83.6 °F 62.5 °F 29.69 in WSW 3.8 mph 14 mph 49% 0.00 in 761 W/m2
15:04 83.8 °F 62.4 °F 29.69 in SW 2.6 mph 14 mph 48.6% 0.00 in 754 W/m2
15:09 83.8 °F 62.6 °F 29.68 in WSW 3.9 mph 11 mph 49% 0.00 in 731 W/m2
15:14 83.9 °F 62.1 °F 29.68 in WSW 3.2 mph 11 mph 47.9% 0.00 in 719 W/m2
15:19 83.9 °F 61.7 °F 29.68 in WSW 3.8 mph 11 mph 47.3% 0.00 in 710 W/m2
15:24 83.8 °F 61.1 °F 29.68 in WSW 4.5 mph 17 mph 46.3% 0.00 in 696 W/m2
15:29 83.9 °F 61 °F 29.69 in WSW 3.7 mph 17 mph 46.1% 0.00 in 682 W/m2
15:34 83.8 °F 61.1 °F 29.69 in WSW 4 mph 17 mph 46.3% 0.00 in 668 W/m2
15:39 83.9 °F 61.7 °F 29.69 in WSW 4.7 mph 13 mph 47.2% 0.00 in 663 W/m2
15:44 83.9 °F 61.9 °F 29.69 in SW 1.8 mph 13 mph 47.6% 0.00 in 650 W/m2
15:49 83.9 °F 62.7 °F 29.69 in SW 1 mph 13 mph 49% 0.00 in 626 W/m2
15:54 83.9 °F 62.5 °F 29.69 in WSW 2.4 mph 13 mph 48.8% 0.00 in 638 W/m2
15:59 83.6 °F 61.5 °F 29.69 in WSW 4.3 mph 14 mph 47.4% 0.00 in 640 W/m2
16:00 83.4 °F 61.1 °F 29.69 in NW 1 mph 14 mph 47% 0.00 in 615 W/m2
16:09 82.9 °F 61.2 °F 29.69 in WSW 2.7 mph 12 mph 48% 0.00 in 42 W/m2
16:14 82.5 °F 60 °F 29.69 in WSW 3.6 mph 12 mph 46.6% 0.00 in 39 W/m2
16:19 82.2 °F 60.1 °F 29.69 in SW 2.3 mph 12 mph 47.2% 0.00 in 37 W/m2
16:24 81.9 °F 60.3 °F 29.69 in WSW 2.8 mph 12 mph 48% 0.00 in 35 W/m2
16:29 81.7 °F 60.7 °F 29.69 in WSW 2.5 mph 12 mph 49% 0.00 in 35 W/m2
16:34 81.6 °F 60.6 °F 29.70 in WSW 1.8 mph 12 mph 49.1% 0.00 in 35 W/m2
16:39 81.4 °F 60.3 °F 29.70 in WSW 2.1 mph 11 mph 48.7% 0.00 in 35 W/m2
16:44 81.4 °F 60.2 °F 29.70 in West 3.6 mph 12 mph 48.6% 0.00 in 33 W/m2
16:49 81.2 °F 60.2 °F 29.70 in WNW 1.3 mph 12 mph 49% 0.00 in 33 W/m2
16:54 81.1 °F 60.5 °F 29.70 in WSW 2.1 mph 12 mph 49.5% 0.00 in 39 W/m2
16:59 81.1 °F 60.6 °F 29.70 in WNW 2.3 mph 12 mph 49.8% 0.00 in 69 W/m2
17:04 81 °F 60.2 °F 29.70 in WSW 3.5 mph 14 mph 49.2% 0.00 in 93 W/m2
17:09 80.9 °F 60 °F 29.70 in WSW 2.2 mph 14 mph 49.1% 0.00 in 91 W/m2
17:14 80.7 °F 59.9 °F 29.70 in WSW 3.2 mph 14 mph 49.2% 0.00 in 91 W/m2
17:19 80.4 °F 59.5 °F 29.70 in West 2.9 mph 14 mph 49% 0.00 in 65 W/m2
17:24 80.1 °F 59.4 °F 29.70 in West 2.7 mph 14 mph 49.3% 0.00 in 42 W/m2
17:29 79.8 °F 60 °F 29.71 in WNW 1.6 mph 14 mph 50.9% 0.00 in 47 W/m2
17:34 79.6 °F 60.4 °F 29.71 in WNW 1.6 mph 14 mph 51.8% 0.00 in 47 W/m2
17:39 79.6 °F 60.5 °F 29.71 in West 1.6 mph 7 mph 52.1% 0.00 in 39 W/m2
17:44 79.5 °F 60.9 °F 29.71 in WSW 1.7 mph 9 mph 53% 0.00 in 30 W/m2
17:49 79.4 °F 60.1 °F 29.71 in West 3.1 mph 10 mph 51.7% 0.00 in 28 W/m2
17:54 79.2 °F 60.1 °F 29.71 in West 1.1 mph 10 mph 52% 0.00 in 26 W/m2
17:59 79.1 °F 60.5 °F 29.72 in West 0.8 mph 10 mph 53% 0.00 in 25 W/m2
18:04 78.9 °F 60.4 °F 29.72 in West 1.5 mph 10 mph 53% 0.00 in 23 W/m2
18:09 78.7 °F 60.7 °F 29.72 in WSW 0.4 mph 9 mph 54% 0.00 in 21 W/m2
18:14 78.6 °F 61 °F 29.72 in West 0.5 mph 9 mph 54.8% 0.00 in 21 W/m2
18:19 78.3 °F 60.6 °F 29.72 in WNW 2.4 mph 9 mph 54.5% 0.00 in 19 W/m2
18:24 78 °F 60.1 °F 29.73 in WNW 3.1 mph 10 mph 54.2% 0.00 in 19 W/m2
18:29 77.7 °F 60.6 °F 29.73 in WNW 0.6 mph 10 mph 55.8% 0.00 in 11 W/m2
18:34 77.4 °F 60.6 °F 29.73 in WNW 1 mph 10 mph 56.2% 0.00 in 14 W/m2
18:39 77 °F 60.6 °F 29.73 in WNW 0.6 mph 4 mph 57% 0.00 in 21 W/m2
18:44 76.7 °F 60.8 °F 29.74 in WNW 0.1 mph 4 mph 58% 0.00 in 23 W/m2
18:49 76.5 °F 61.1 °F 29.74 in Calm   4 mph 59% 0.00 in 26 W/m2
18:54 76.3 °F 61.2 °F 29.74 in Calm   4 mph 59.7% 0.00 in 16 W/m2
18:59 76.1 °F 61.2 °F 29.74 in Calm   4 mph 60% 0.00 in 12 W/m2
19:04 75.9 °F 61 °F 29.74 in Calm   4 mph 60% 0.00 in 7 W/m2
19:09 75.7 °F 60.8 °F 29.74 in Calm     60% 0.00 in 5 W/m2
19:14 75.4 °F 60.7 °F 29.74 in Calm     60.3% 0.00 in 0 W/m2
19:19 75.2 °F 60.9 °F 29.74 in Calm     61.1% 0.00 in 0 W/m2
19:24 74.9 °F 61.1 °F 29.74 in Calm     62.2% 0.00 in 0 W/m2
19:29 74.6 °F 61.4 °F 29.75 in Calm     63.5% 0.00 in 0 W/m2
19:34 74.3 °F 61.4 °F 29.75 in Calm     64.3% 0.00 in 0 W/m2
19:39 73.9 °F 61.7 °F 29.75 in Calm     65.6% 0.00 in 0 W/m2
19:44 73.5 °F 61.3 °F 29.75 in Calm     65.5% 0.00 in 0 W/m2
19:49 73.2 °F 61.1 °F 29.76 in WNW 0.1 mph 3 mph 66% 0.00 in 0 W/m2
19:54 72.8 °F 60.8 °F 29.76 in Calm   3 mph 66% 0.00 in 0 W/m2
19:59 72.4 °F 60.9 °F 29.76 in Calm   3 mph 67.3% 0.00 in 0 W/m2
20:00 72.2 °F 61.5 °F 29.76 in Calm   3 mph 69% 0.00 in 0 W/m2
20:09 71.6 °F 61 °F 29.77 in Calm     69.3% 0.00 in 0 W/m2
20:14 71.2 °F 60.7 °F 29.77 in Calm     69.3% 0.00 in 0 W/m2
20:19 71 °F 60.4 °F 29.77 in Calm     69.2% 0.00 in 0 W/m2
20:24 70.7 °F 60.3 °F 29.77 in Calm     69.6% 0.00 in 0 W/m2
20:29 70.5 °F 60.3 °F 29.78 in Calm     70% 0.00 in 0 W/m2
20:34 70.3 °F 60 °F 29.78 in Calm     70% 0.00 in 0 W/m2
20:39 70 °F 60 °F 29.78 in Calm     70.6% 0.00 in 0 W/m2
20:44 69.8 °F 60.3 °F 29.79 in Calm     71.8% 0.00 in 0 W/m2
20:49 69.5 °F 60.4 °F 29.79 in Calm   1 mph 73% 0.00 in 0 W/m2
20:54 69.1 °F 60.1 °F 29.79 in Calm   1 mph 73% 0.00 in 0 W/m2
20:59 68.8 °F 59.8 °F 29.80 in Calm   1 mph 73% 0.00 in 0 W/m2
21:04 68.6 °F 59.6 °F 29.80 in Calm   1 mph 73% 0.00 in 0 W/m2
21:09 68.4 °F 59.4 °F 29.80 in Calm     73% 0.00 in 0 W/m2
21:14 68.2 °F 59.2 °F 29.81 in Calm     73% 0.00 in 0 W/m2
21:19 68.1 °F 59.1 °F 29.81 in Calm     73% 0.00 in 0 W/m2
21:24 67.9 °F 59.3 °F 29.81 in Calm     74% 0.00 in 0 W/m2
21:29 67.8 °F 59.2 °F 29.81 in Calm     74% 0.00 in 0 W/m2
21:34 67.6 °F 59.1 °F 29.81 in Calm     74% 0.00 in 0 W/m2
21:39 67.5 °F 58.9 °F 29.81 in Calm     74% 0.00 in 0 W/m2
21:44 67.3 °F 59.1 °F 29.81 in Calm     74.9% 0.00 in 0 W/m2
21:49 67.1 °F 59 °F 29.81 in Calm     75.1% 0.00 in 0 W/m2
21:54 66.9 °F 58.8 °F 29.82 in Calm     75% 0.00 in 0 W/m2
21:59 66.7 °F 58.7 °F 29.82 in Calm     75.3% 0.00 in 0 W/m2
22:04 66.6 °F 58.8 °F 29.82 in Calm     76% 0.00 in 0 W/m2
22:09 66.4 °F 58.6 °F 29.82 in Calm     76% 0.00 in 0 W/m2
22:14 66.2 °F 58.6 °F 29.82 in Calm     76.6% 0.00 in 0 W/m2
22:19 66 °F 58.8 °F 29.82 in Calm     77.6% 0.00 in 0 W/m2
22:24 65.8 °F 58.8 °F 29.83 in Calm     78% 0.00 in 0 W/m2
22:29 65.7 °F 58.8 °F 29.83 in Calm     78.5% 0.00 in 0 W/m2
22:34 65.5 °F 58.8 °F 29.83 in Calm     79% 0.00 in 0 W/m2
22:39 65.3 °F 58.8 °F 29.83 in Calm     79.6% 0.00 in 0 W/m2
22:44 65.1 °F 58.7 °F 29.84 in Calm     80% 0.00 in 0 W/m2
22:49 64.9 °F 58.6 °F 29.84 in Calm     80% 0.00 in 0 W/m2
22:54 64.7 °F 58.4 °F 29.84 in Calm     80% 0.00 in 0 W/m2
22:59 64.6 °F 58.4 °F 29.84 in Calm     80.5% 0.00 in 0 W/m2
23:04 64.4 °F 58.4 °F 29.84 in Calm     80.8% 0.00 in 0 W/m2
23:09 64.3 °F 58.3 °F 29.84 in Calm     81% 0.00 in 0 W/m2
23:14 64.2 °F 58.3 °F 29.84 in Calm     81% 0.00 in 0 W/m2
23:19 64.1 °F 58.2 °F 29.84 in Calm     81% 0.00 in 0 W/m2
23:24 64.1 °F 58.2 °F 29.84 in Calm     81% 0.00 in 0 W/m2
23:29 64 °F 58.1 °F 29.84 in Calm     81% 0.00 in 0 W/m2
23:34 63.9 °F 58 °F 29.85 in Calm     81% 0.00 in 0 W/m2
23:39 63.8 °F 57.9 °F 29.85 in Calm     81% 0.00 in 0 W/m2
23:44 63.6 °F 57.9 °F 29.85 in Calm     81.5% 0.00 in 0 W/m2
23:49 63.5 °F 57.9 °F 29.85 in Calm   2 mph 82% 0.00 in 0 W/m2
23:54 63.4 °F 57.8 °F 29.85 in Calm   2 mph 82% 0.00 in 0 W/m2
23:59 63.3 °F 57.7 °F 29.85 in WNW 0.1 mph 2 mph 82% 0.00 in 0 W/m2
Hartford County Weather
Compliments of Weather Underground - 4 mb